Time;durP1;ratioP1;P1;durP2;ratioP2;P2;SDS_P1;SDS_P2;PMS_P1;PMS_P2;Temp;Humidity;BMP_temperature;BMP_pressure;BME280_temperature;BME280_humidity;BME280_pressure;Samples;Min_cycle;Max_cycle;Signal;HPM_P1;HPM_P2
2021/01/27 00:00:12;;;;;;;0.73;0.20;;;1.40;40.80;;;;;;5039227;28;20025;-68
2021/01/27 00:02:38;;;;;;;0.73;0.40;;;1.40;38.10;;;;;;5038938;28;20026;-68
2021/01/27 00:05:07;;;;;;;0.70;0.38;;;1.70;37.70;;;;;;5038582;28;20025;-68
2021/01/27 00:07:32;;;;;;;0.32;0.20;;;1.80;38.90;;;;;;5039032;28;20021;-68
2021/01/27 00:09:58;;;;;;;0.38;0.30;;;1.60;39.50;;;;;;5039184;28;20051;-68
2021/01/27 00:12:24;;;;;;;0.30;0.20;;;1.50;39.00;;;;;;5038994;28;20317;-68
2021/01/27 00:14:51;;;;;;;0.50;0.30;;;1.70;37.00;;;;;;5038842;28;20030;-69
2021/01/27 00:17:16;;;;;;;1.02;0.30;;;1.80;38.20;;;;;;5038877;28;20025;-69
2021/01/27 00:19:42;;;;;;;1.10;0.25;;;2.00;36.30;;;;;;5039115;28;20037;-68
2021/01/27 00:22:08;;;;;;;0.35;0.22;;;2.10;37.40;;;;;;5038795;28;20368;-69
2021/01/27 00:24:33;;;;;;;0.57;0.30;;;2.20;37.10;;;;;;5039034;28;20116;-68
2021/01/27 00:26:59;;;;;;;0.30;0.20;;;2.10;38.90;;;;;;5038617;28;20132;-68
2021/01/27 00:29:26;;;;;;;0.52;0.30;;;2.10;37.50;;;;;;5038435;28;20046;-69
2021/01/27 00:31:51;;;;;;;0.40;0.20;;;2.10;37.10;;;;;;5038628;28;20074;-68
2021/01/27 00:34:20;;;;;;;0.20;0.20;;;1.90;37.70;;;;;;5038722;28;20026;-68
2021/01/27 00:36:48;;;;;;;0.30;0.28;;;1.90;37.10;;;;;;5038714;28;20033;-68
2021/01/27 00:39:13;;;;;;;0.45;0.25;;;2.00;37.30;;;;;;5037403;28;20026;-68
2021/01/27 00:41:39;;;;;;;0.10;0.10;;;2.30;36.30;;;;;;5038464;28;20159;-68
2021/01/27 00:44:05;;;;;;;0.68;0.30;;;2.40;38.90;;;;;;5038388;28;20029;-69
2021/01/27 00:46:30;;;;;;;0.10;0.10;;;2.40;38.40;;;;;;5038286;28;20034;-68
2021/01/27 00:48:56;;;;;;;0.80;0.20;;;2.40;36.80;;;;;;5038478;28;20060;-68
2021/01/27 00:51:21;;;;;;;0.20;0.20;;;2.40;36.30;;;;;;5038233;28;20029;-69
2021/01/27 00:53:47;;;;;;;0.40;0.30;;;2.60;37.10;;;;;;5038454;28;20021;-68
2021/01/27 00:56:15;;;;;;;0.30;0.20;;;2.70;37.00;;;;;;5038555;28;20359;-68
2021/01/27 00:58:41;;;;;;;0.25;0.20;;;2.70;37.00;;;;;;5038054;28;20029;-68
2021/01/27 01:01:06;;;;;;;1.33;0.25;;;2.70;35.10;;;;;;5038034;28;20037;-68
2021/01/27 01:03:32;;;;;;;0.20;0.20;;;2.90;34.10;;;;;;5038000;28;20402;-68
2021/01/27 01:05:57;;;;;;;0.43;0.30;;;3.30;33.30;;;;;;5038107;28;20029;-68
2021/01/27 01:08:23;;;;;;;1.65;0.20;;;3.40;34.40;;;;;;5037909;28;20033;-68
2021/01/27 01:10:52;;;;;;;0.70;0.30;;;3.30;34.50;;;;;;5036793;28;20030;-68
2021/01/27 01:13:20;;;;;;;0.50;0.30;;;3.20;35.70;;;;;;5037763;28;20029;-68
2021/01/27 01:15:46;;;;;;;0.60;0.30;;;3.00;36.00;;;;;;5035749;28;20029;-68
2021/01/27 01:18:12;;;;;;;0.47;0.32;;;3.00;36.00;;;;;;5036672;28;20025;-68
2021/01/27 01:20:38;;;;;;;0.50;0.30;;;3.10;35.20;;;;;;5036601;28;20060;-66
2021/01/27 01:23:04;;;;;;;0.47;0.38;;;3.20;36.00;;;;;;5037634;28;20053;-66
2021/01/27 01:25:33;;;;;;;0.38;0.25;;;3.20;34.00;;;;;;5037744;28;20365;-69
2021/01/27 01:28:00;;;;;;;0.40;0.30;;;3.40;34.00;;;;;;5037576;28;20026;-66
2021/01/27 01:30:32;;;;;;;0.10;0.10;;;3.50;34.20;;;;;;5037276;28;20049;-66
2021/01/27 01:33:01;;;;;;;0.40;0.20;;;3.40;32.90;;;;;;5037814;28;20381;-66
2021/01/27 01:35:28;;;;;;;0.20;0.20;;;3.60;33.20;;;;;;5037340;28;20373;-69
2021/01/27 01:37:54;;;;;;;0.25;0.10;;;3.70;31.80;;;;;;5037680;28;20029;-69
2021/01/27 01:40:24;;;;;;;0.10;0.10;;;3.60;33.50;;;;;;5037325;28;20356;-69
2021/01/27 01:43:11;;;;;;;0.30;0.20;;;3.50;33.00;;;;;;5037534;28;20037;-69
2021/01/27 01:45:43;;;;;;;0.85;0.20;;;3.40;34.20;;;;;;5037378;28;20036;-68
2021/01/27 01:48:29;;;;;;;0.20;0.20;;;3.40;34.30;;;;;;5037196;28;20030;-69
2021/01/27 01:51:05;;;;;;;0.20;0.20;;;3.30;33.90;;;;;;5037399;28;20067;-66
2021/01/27 01:53:31;;;;;;;2.10;0.20;;;3.10;36.30;;;;;;5037200;28;20104;-68
2021/01/27 01:56:02;;;;;;;0.98;0.20;;;3.10;33.50;;;;;;5036903;28;20108;-68
2021/01/27 01:58:28;;;;;;;0.20;0.20;;;3.20;34.20;;;;;;5037081;28;20069;-68
2021/01/27 02:01:00;;;;;;;0.10;0.10;;;3.10;37.00;;;;;;5037231;28;20100;-68
2021/01/27 02:03:32;;;;;;;0.32;0.20;;;3.10;35.30;;;;;;5037791;28;20353;-68
2021/01/27 02:06:03;;;;;;;0.38;0.20;;;3.00;36.70;;;;;;5036822;28;20025;-68
2021/01/27 02:08:30;;;;;;;0.20;0.20;;;2.90;36.80;;;;;;5036944;28;20052;-68
2021/01/27 02:10:57;;;;;;;0.43;0.20;;;2.70;37.00;;;;;;5036926;28;20452;-68
2021/01/27 02:13:46;;;;;;;1.00;0.30;;;2.70;35.50;;;;;;5035765;28;20040;-68
2021/01/27 02:16:28;;;;;;;0.20;0.20;;;2.60;38.10;;;;;;5037007;28;20083;-68
2021/01/27 02:19:21;;;;;;;0.17;0.17;;;2.60;35.20;;;;;;5037011;28;20325;-68
2021/01/27 02:22:15;;;;;;;0.43;0.17;;;2.80;34.80;;;;;;5037213;28;20314;-68
2021/01/27 02:24:57;;;;;;;0.10;0.10;;;3.00;35.10;;;;;;5035608;28;20029;-68
2021/01/27 02:27:36;;;;;;;0.38;0.25;;;2.90;34.70;;;;;;5036878;28;20055;-69
2021/01/27 02:30:20;;;;;;;0.30;0.20;;;3.20;34.60;;;;;;5036658;28;20103;-69
2021/01/27 02:33:06;;;;;;;0.32;0.20;;;3.20;35.30;;;;;;5036867;28;20101;-69
2021/01/27 02:35:48;;;;;;;1.08;0.20;;;3.20;35.10;;;;;;5036589;28;20107;-69
2021/01/27 02:38:31;;;;;;;0.43;0.20;;;3.30;33.80;;;;;;5036535;28;20025;-69
2021/01/27 02:41:05;;;;;;;0.35;0.20;;;3.40;34.20;;;;;;5036533;28;20467;-69
2021/01/27 02:43:37;;;;;;;0.10;0.10;;;3.40;34.80;;;;;;5036553;28;20025;-69
2021/01/27 02:46:24;;;;;;;0.17;0.17;;;3.40;33.30;;;;;;5036420;28;20037;-69
2021/01/27 02:49:06;;;;;;;;;;;3.40;35.00;;;;;;5036867;28;20075;-69
2021/01/27 02:51:50;;;;;;;0.32;0.25;;;3.40;34.10;;;;;;5035342;28;20213;-69
2021/01/27 02:54:30;;;;;;;0.45;0.20;;;3.50;33.70;;;;;;5036471;28;20033;-69
2021/01/27 02:57:07;;;;;;;0.60;0.30;;;3.40;34.10;;;;;;5036642;28;20056;-68
2021/01/27 02:59:45;;;;;;;0.60;0.30;;;3.30;34.60;;;;;;5036411;28;20031;-68
2021/01/27 03:02:21;;;;;;;0.57;0.30;;;3.20;34.60;;;;;;5036672;28;20029;-69
2021/01/27 03:05:07;;;;;;;0.35;0.20;;;3.20;34.40;;;;;;5036409;28;20029;-69
2021/01/27 03:07:35;;;;;;;0.67;0.40;;;2.90;35.00;;;;;;5036619;28;20037;-69
2021/01/27 03:10:19;;;;;;;0.60;0.40;;;2.80;36.40;;;;;;5035284;28;20112;-69
2021/01/27 03:12:50;;;;;;;0.63;0.40;;;2.60;37.50;;;;;;5036218;28;20026;-69
2021/01/27 03:15:19;;;;;;;0.32;0.30;;;2.30;38.00;;;;;;5036626;28;20318;-69
2021/01/27 03:17:51;;;;;;;0.47;0.30;;;2.10;40.20;;;;;;5036504;28;20049;-69
2021/01/27 03:20:32;;;;;;;0.65;0.40;;;1.80;42.00;;;;;;5036287;28;20030;-69
2021/01/27 03:23:13;;;;;;;0.20;0.20;;;1.60;38.60;;;;;;5036294;28;20414;-69
2021/01/27 03:25:47;;;;;;;1.85;0.30;;;1.90;38.10;;;;;;5035965;28;20029;-69
2021/01/27 03:28:22;;;;;;;0.35;0.20;;;2.40;36.40;;;;;;5036126;28;20018;-69
2021/01/27 03:30:50;;;;;;;0.52;0.50;;;2.70;34.90;;;;;;5035813;28;20125;-69
2021/01/27 03:33:25;;;;;;;0.13;0.13;;;3.00;34.40;;;;;;5036372;28;20037;-69
2021/01/27 03:35:54;;;;;;;0.30;0.20;;;3.10;34.40;;;;;;5036046;28;20026;-68
2021/01/27 03:38:29;;;;;;;2.45;0.20;;;3.40;32.90;;;;;;5036973;28;20341;-69
2021/01/27 03:41:14;;;;;;;0.10;0.10;;;3.50;32.00;;;;;;5039572;28;20041;-69
2021/01/27 03:43:55;;;;;;;0.20;0.20;;;3.50;32.70;;;;;;5039676;28;20032;-69
2021/01/27 03:46:24;;;;;;;0.57;0.30;;;3.50;33.60;;;;;;5038377;28;20057;-69
2021/01/27 03:49:05;;;;;;;0.90;0.57;;;3.50;34.70;;;;;;5039452;28;20026;-69
2021/01/27 03:51:37;;;;;;;1.08;0.60;;;3.30;34.70;;;;;;5039686;28;20101;-69
2021/01/27 03:54:09;;;;;;;1.00;0.70;;;3.20;35.10;;;;;;5039373;28;20045;-69
2021/01/27 03:56:41;;;;;;;0.50;0.32;;;3.00;37.50;;;;;;5039273;28;20048;-69
2021/01/27 03:59:11;;;;;;;0.50;0.30;;;2.90;34.70;;;;;;5039521;28;20056;-69
2021/01/27 04:01:46;;;;;;;0.80;0.30;;;2.70;34.30;;;;;;5039474;28;20104;-69
2021/01/27 04:04:12;;;;;;;0.70;0.40;;;2.60;35.70;;;;;;5039155;28;20026;-69
2021/01/27 04:06:38;;;;;;;0.88;0.50;;;2.60;37.00;;;;;;5038999;28;20037;-69
2021/01/27 04:09:03;;;;;;;0.80;0.50;;;2.40;37.30;;;;;;5039083;28;20017;-69
2021/01/27 04:11:29;;;;;;;0.80;0.43;;;2.20;37.80;;;;;;5039034;28;20028;-69
2021/01/27 04:13:55;;;;;;;0.75;0.47;;;2.00;40.70;;;;;;5039224;28;20089;-69
2021/01/27 04:16:20;;;;;;;0.95;0.60;;;1.70;40.80;;;;;;5038941;28;20033;-69
2021/01/27 04:18:46;;;;;;;1.95;0.80;;;1.50;42.70;;;;;;5039406;28;20025;-69
2021/01/27 04:21:12;;;;;;;0.98;0.70;;;1.30;42.30;;;;;;5038818;28;20037;-69
2021/01/27 04:23:37;;;;;;;1.05;0.63;;;1.10;46.00;;;;;;5039053;28;20025;-68
2021/01/27 04:26:03;;;;;;;1.48;0.70;;;0.90;46.60;;;;;;5039055;28;20406;-69
2021/01/27 04:28:29;;;;;;;0.93;0.50;;;0.70;47.70;;;;;;5038873;28;20060;-69
2021/01/27 04:30:55;;;;;;;1.10;0.63;;;1.10;40.40;;;;;;5037421;28;20053;-69
2021/01/27 04:33:20;;;;;;;1.67;0.98;;;1.10;43.50;;;;;;5038614;28;20109;-69
2021/01/27 04:35:47;;;;;;;1.02;0.68;;;1.10;41.20;;;;;;5038760;28;20104;-69
2021/01/27 04:38:13;;;;;;;0.90;0.60;;;1.20;42.60;;;;;;5038576;28;20026;-69
2021/01/27 04:40:42;;;;;;;1.10;0.70;;;1.10;41.70;;;;;;5038623;28;20029;-69
2021/01/27 04:43:23;;;;;;;1.88;0.60;;;1.20;41.30;;;;;;5038405;28;20025;-68
2021/01/27 04:46:16;;;;;;;1.27;0.70;;;1.10;41.60;;;;;;5038305;28;20056;-68
2021/01/27 04:49:16;;;;;;;1.17;0.60;;;1.00;41.50;;;;;;5037569;28;20033;-69
2021/01/27 04:52:00;;;;;;;0.90;0.60;;;1.00;43.10;;;;;;5038274;28;20036;-69
2021/01/27 04:54:35;;;;;;;1.00;0.55;;;0.90;42.60;;;;;;5038128;28;20025;-68
2021/01/27 04:57:15;;;;;;;1.23;0.50;;;0.90;42.80;;;;;;5038435;28;20029;-68
2021/01/27 04:59:57;;;;;;;1.23;0.60;;;0.90;43.40;;;;;;5037092;28;20326;-69
2021/01/27 05:02:49;;;;;;;0.82;0.50;;;0.80;43.10;;;;;;5038191;28;20083;-69
2021/01/27 05:05:39;;;;;;;7.55;5.38;;;1.00;42.40;;;;;;5037905;28;20075;-69
2021/01/27 05:08:16;;;;;;;2.78;1.27;;;0.90;43.80;;;;;;5037967;28;20024;-69
2021/01/27 05:10:58;;;;;;;0.90;0.50;;;0.90;39.20;;;;;;5038183;28;20025;-68
2021/01/27 05:13:34;;;;;;;1.10;0.50;;;0.90;44.00;;;;;;5038053;28;20037;-68
2021/01/27 05:16:03;;;;;;;0.60;0.50;;;0.70;42.70;;;;;;5036764;28;20326;-69
2021/01/27 05:18:29;;;;;;;0.95;0.60;;;0.60;43.40;;;;;;5037785;28;20369;-68
2021/01/27 05:20:55;;;;;;;2.63;0.50;;;0.50;44.70;;;;;;5037974;28;20032;-69
2021/01/27 05:23:21;;;;;;;0.95;0.60;;;0.30;43.70;;;;;;5037734;28;20030;-69
2021/01/27 05:25:55;;;;;;;0.95;0.40;;;0.20;45.00;;;;;;5037810;28;20083;-69
2021/01/27 05:28:26;;;;;;;0.20;0.20;;;0.20;45.10;;;;;;5037789;28;20029;-69
2021/01/27 05:30:54;;;;;;;1.08;0.30;;;0.40;40.10;;;;;;5037315;28;20125;-69
2021/01/27 05:33:40;;;;;;;0.20;0.10;;;0.90;39.30;;;;;;5037698;28;20021;-69
2021/01/27 05:36:13;;;;;;;0.50;0.20;;;1.70;37.00;;;;;;5037315;28;20033;-69
2021/01/27 05:38:39;;;;;;;2.40;0.32;;;2.10;36.50;;;;;;5037357;28;20056;-69
2021/01/27 05:41:13;;;;;;;0.93;0.50;;;2.30;37.60;;;;;;5037284;28;20025;-69
2021/01/27 05:43:40;;;;;;;0.60;0.45;;;2.20;36.70;;;;;;5037503;28;20216;-68
2021/01/27 05:46:30;;;;;;;0.63;0.40;;;2.10;38.00;;;;;;5037131;28;20028;-68
2021/01/27 05:48:56;;;;;;;1.00;0.50;;;1.90;37.90;;;;;;5036947;28;20041;-69
2021/01/27 05:51:34;;;;;;;0.80;0.50;;;1.70;39.40;;;;;;5037154;28;20287;-69
2021/01/27 05:54:17;;;;;;;1.13;0.50;;;1.40;41.10;;;;;;5037276;28;20029;-69
2021/01/27 05:56:43;;;;;;;7.20;1.20;;;1.10;42.30;;;;;;5036951;28;20030;-69
2021/01/27 05:59:21;;;;;;;0.40;0.30;;;0.90;46.40;;;;;;5037165;28;20085;-69
2021/01/27 06:01:49;;;;;;;0.28;0.28;;;0.60;46.10;;;;;;5036618;28;20025;-69
2021/01/27 06:04:14;;;;;;;0.55;0.30;;;0.40;47.00;;;;;;5037011;28;20317;-69
2021/01/27 06:06:46;;;;;;;0.40;0.30;;;0.40;42.70;;;;;;5036782;28;20032;-69
2021/01/27 06:09:13;;;;;;;0.77;0.30;;;0.50;44.10;;;;;;5035855;28;20430;-69
2021/01/27 06:11:39;;;;;;;0.88;0.30;;;0.50;41.00;;;;;;5037159;28;20163;-69
2021/01/27 06:14:19;;;;;;;0.50;0.32;;;0.70;40.80;;;;;;5036942;28;20097;-69
2021/01/27 06:16:49;;;;;;;2.15;0.20;;;1.30;38.40;;;;;;5036800;28;20413;-67
2021/01/27 06:19:20;;;;;;;0.40;0.30;;;1.60;38.80;;;;;;5036758;28;20060;-68
2021/01/27 06:21:49;;;;;;;0.30;0.30;;;1.80;38.90;;;;;;5037079;28;20387;-69
2021/01/27 06:24:43;;;;;;;0.20;0.20;;;2.00;38.40;;;;;;5036620;28;20037;-69
2021/01/27 06:27:30;;;;;;;0.40;0.20;;;1.90;40.00;;;;;;5036939;28;20112;-69
2021/01/27 06:30:01;;;;;;;;;;;2.00;38.80;;;;;;5036809;28;20049;-69
2021/01/27 06:32:46;;;;;;;0.35;0.20;;;2.10;37.40;;;;;;5036679;28;19905;-69
2021/01/27 06:35:40;;;;;;;0.28;0.20;;;2.10;38.20;;;;;;5036470;28;20052;-69
2021/01/27 06:38:29;;;;;;;0.38;0.20;;;2.10;37.20;;;;;;5036587;28;20307;-69
2021/01/27 06:41:19;;;;;;;0.20;0.20;;;2.00;38.80;;;;;;5036643;28;20040;-69
2021/01/27 06:44:00;;;;;;;0.45;0.20;;;1.90;38.80;;;;;;5036518;28;20402;-69
2021/01/27 06:46:48;;;;;;;0.95;0.30;;;2.00;36.70;;;;;;5036333;28;20437;-69
2021/01/27 06:49:32;;;;;;;0.35;0.28;;;2.10;35.50;;;;;;5036739;28;20025;-69
2021/01/27 06:52:19;;;;;;;0.25;0.20;;;2.10;37.80;;;;;;5036943;28;20030;-69
2021/01/27 06:55:04;;;;;;;;;;;2.10;38.70;;;;;;5035770;28;20330;-69
2021/01/27 06:58:10;;;;;;;0.40;0.20;;;2.10;36.70;;;;;;5037007;28;19916;-69
2021/01/27 07:00:54;;;;;;;0.32;0.20;;;2.20;38.10;;;;;;5036161;28;20426;-67
2021/01/27 07:03:35;;;;;;;0.20;0.20;;;2.30;36.40;;;;;;5036399;28;20038;-69
2021/01/27 07:06:24;;;;;;;0.30;0.20;;;2.40;35.60;;;;;;5036222;28;20037;-67
2021/01/27 07:09:31;;;;;;;0.50;0.30;;;2.40;37.70;;;;;;5036395;28;20053;-67
2021/01/27 07:12:15;;;;;;;0.20;0.20;;;2.50;37.80;;;;;;5035322;28;20426;-69
2021/01/27 07:15:11;;;;;;;1.73;0.85;;;2.40;39.70;;;;;;5039028;28;20030;-69
2021/01/27 07:17:40;;;;;;;1.37;0.80;;;2.40;39.10;;;;;;5039055;28;20029;-69
2021/01/27 07:20:17;;;;;;;0.57;0.35;;;2.30;38.10;;;;;;5039977;28;20333;-69
2021/01/27 07:23:21;;;;;;;0.98;0.50;;;2.10;40.10;;;;;;5040005;28;20033;-69
2021/01/27 07:26:03;;;;;;;2.92;0.88;;;2.00;40.10;;;;;;5040051;28;20030;-69
2021/01/27 07:28:56;;;;;;;1.52;0.70;;;2.00;41.00;;;;;;5040455;28;20414;-68
2021/01/27 07:31:37;;;;;;;1.27;0.70;;;2.00;40.80;;;;;;5039768;28;20033;-69
2021/01/27 07:34:09;;;;;;;0.50;0.38;;;1.80;45.10;;;;;;5039737;28;20026;-69
2021/01/27 07:37:10;;;;;;;0.57;0.30;;;1.70;43.20;;;;;;5039688;28;20029;-69
2021/01/27 07:39:59;;;;;;;0.70;0.30;;;1.70;42.90;;;;;;5039929;28;20026;-68
2021/01/27 07:42:51;;;;;;;0.75;0.40;;;1.80;43.20;;;;;;5039695;28;20485;-69
2021/01/27 07:45:33;;;;;;;0.85;0.40;;;1.80;43.80;;;;;;5039628;28;20025;-67
2021/01/27 07:48:14;;;;;;;0.90;0.40;;;1.90;43.50;;;;;;5039492;28;20025;-68
2021/01/27 07:50:40;;;;;;;0.57;0.50;;;2.00;43.50;;;;;;5039700;28;20038;-69
2021/01/27 07:53:29;;;;;;;0.30;0.22;;;2.10;42.70;;;;;;5039447;28;20029;-69
2021/01/27 07:56:04;;;;;;;0.63;0.32;;;2.30;42.60;;;;;;5039978;28;20317;-69
2021/01/27 07:58:38;;;;;;;0.75;0.30;;;2.40;41.60;;;;;;5039322;28;20038;-69
2021/01/27 08:01:26;;;;;;;0.73;0.32;;;2.40;40.80;;;;;;5039322;28;20025;-69
2021/01/27 08:04:07;;;;;;;0.32;0.20;;;2.50;41.00;;;;;;5039440;28;20036;-68
2021/01/27 08:06:55;;;;;;;0.50;0.30;;;2.50;39.40;;;;;;5039032;28;20030;-69
2021/01/27 08:09:35;;;;;;;0.60;0.40;;;2.60;41.50;;;;;;5039415;28;20056;-69
2021/01/27 08:12:19;;;;;;;0.57;0.40;;;2.70;43.30;;;;;;5039068;28;20055;-69
2021/01/27 08:15:10;;;;;;;0.88;0.40;;;2.60;43.90;;;;;;5038901;28;20037;-69
2021/01/27 08:17:38;;;;;;;0.88;0.38;;;2.50;40.90;;;;;;5039213;28;20049;-68
2021/01/27 08:20:24;;;;;;;0.45;0.20;;;2.60;41.00;;;;;;5037792;28;20029;-69
2021/01/27 08:23:09;;;;;;;0.80;0.40;;;2.60;40.50;;;;;;5037599;28;20120;-69
2021/01/27 08:25:58;;;;;;;2.75;0.35;;;2.70;40.80;;;;;;5038684;28;20415;-69
2021/01/27 08:28:33;;;;;;;0.50;0.40;;;2.80;40.40;;;;;;5038717;28;20113;-69
2021/01/27 08:31:08;;;;;;;0.30;0.20;;;2.80;40.40;;;;;;5038523;28;20175;-69
2021/01/27 08:33:54;;;;;;;0.60;0.30;;;2.80;39.90;;;;;;5038863;28;20052;-69
2021/01/27 08:36:29;;;;;;;1.08;0.32;;;3.00;40.00;;;;;;5038614;28;20100;-69
2021/01/27 08:38:57;;;;;;;0.10;0.10;;;3.20;40.00;;;;;;5038536;28;20030;-69
2021/01/27 08:41:44;;;;;;;0.40;0.20;;;3.40;38.30;;;;;;5038471;28;20028;-69
2021/01/27 08:44:19;;;;;;;9.85;0.45;;;3.60;38.70;;;;;;5038366;28;20034;-69
2021/01/27 08:46:57;;;;;;;0.40;0.30;;;3.80;38.90;;;;;;5038391;28;20025;-69
2021/01/27 08:49:44;;;;;;;1.27;0.60;;;3.90;39.50;;;;;;5038536;28;20022;-69
2021/01/27 08:52:10;;;;;;;0.50;0.30;;;3.80;40.20;;;;;;5037251;28;20112;-69
2021/01/27 08:54:41;;;;;;;0.15;0.15;;;3.80;38.80;;;;;;5038345;28;20107;-69
2021/01/27 08:57:36;;;;;;;1.02;0.30;;;3.90;37.90;;;;;;5038509;28;20062;-69
2021/01/27 09:00:25;;;;;;;0.82;0.38;;;4.00;38.50;;;;;;5038188;28;20037;-69
2021/01/27 09:03:00;;;;;;;0.13;0.13;;;3.80;37.90;;;;;;5037612;28;20065;-69
2021/01/27 09:05:27;;;;;;;0.43;0.30;;;3.80;38.00;;;;;;5037986;28;20374;-69
2021/01/27 09:07:54;;;;;;;0.45;0.30;;;3.80;37.00;;;;;;5038138;28;20322;-69
2021/01/27 09:10:27;;;;;;;0.35;0.30;;;3.70;39.40;;;;;;5037916;28;20018;-69
2021/01/27 09:12:53;;;;;;;0.40;0.30;;;3.60;38.00;;;;;;5038447;28;20349;-69
2021/01/27 09:15:34;;;;;;;0.45;0.22;;;3.60;39.50;;;;;;5037728;28;20124;-69
2021/01/27 09:18:03;;;;;;;1.27;0.40;;;3.50;39.10;;;;;;5037880;28;20069;-69
2021/01/27 09:20:31;;;;;;;0.70;0.40;;;3.50;39.10;;;;;;5037767;28;20026;-69
2021/01/27 09:23:04;;;;;;;0.20;0.20;;;3.50;38.10;;;;;;5037706;28;20034;-69
2021/01/27 09:25:31;;;;;;;0.75;0.30;;;3.60;38.70;;;;;;5036411;28;20099;-69
2021/01/27 09:28:05;;;;;;;0.55;0.25;;;3.80;39.60;;;;;;5037913;28;20061;-69
2021/01/27 09:30:31;;;;;;;2.33;0.43;;;3.80;39.10;;;;;;5037524;28;20068;-69
2021/01/27 09:33:11;;;;;;;1.10;0.20;;;3.90;39.80;;;;;;5037738;28;20060;-69
2021/01/27 09:35:39;;;;;;;0.47;0.20;;;4.00;41.10;;;;;;5035910;28;20026;-69
2021/01/27 09:38:18;;;;;;;1.02;0.70;;;4.10;40.60;;;;;;5037337;28;20029;-69
2021/01/27 09:40:53;;;;;;;2.65;1.67;;;4.00;39.80;;;;;;5037392;28;20314;-69
2021/01/27 09:43:21;;;;;;;2.70;1.70;;;4.00;43.10;;;;;;5036315;28;20033;-69
2021/01/27 09:45:49;;;;;;;2.13;0.90;;;3.90;45.20;;;;;;5037131;28;20413;-69
2021/01/27 09:48:20;;;;;;;3.58;1.20;;;3.90;44.30;;;;;;5037618;28;20025;-69
2021/01/27 09:50:55;;;;;;;3.83;2.72;;;3.90;44.70;;;;;;5037171;28;20101;-69
2021/01/27 09:53:36;;;;;;;4.43;2.13;;;3.90;49.10;;;;;;5037251;28;20026;-69
2021/01/27 09:56:04;;;;;;;1.48;0.85;;;3.80;48.00;;;;;;5037497;28;20033;-69
2021/01/27 09:58:30;;;;;;;1.90;0.95;;;3.90;45.40;;;;;;5037292;28;20059;-69
2021/01/27 10:01:18;;;;;;;2.28;1.17;;;3.90;44.10;;;;;;5035942;28;20132;-69
2021/01/27 10:03:49;;;;;;;3.30;2.05;;;4.00;46.30;;;;;;5037368;28;20100;-69
2021/01/27 10:06:35;;;;;;;4.82;2.80;;;4.00;44.60;;;;;;5036803;28;20439;-69
2021/01/27 10:09:22;;;;;;;9.43;4.00;;;4.10;51.40;;;;;;5036079;28;20410;-69
2021/01/27 10:11:58;;;;;;;9.57;5.60;;;4.20;49.80;;;;;;5043965;28;20045;-69
2021/01/27 10:14:28;;;;;;;7.85;3.92;;;4.20;49.50;;;;;;5056717;28;20444;-69
2021/01/27 10:17:00;;;;;;;5.93;4.00;;;4.20;48.10;;;;;;5056714;28;20027;-69
2021/01/27 10:19:37;;;;;;;5.03;3.88;;;4.20;51.30;;;;;;5056725;28;20032;-69
2021/01/27 10:22:06;;;;;;;6.68;4.28;;;4.30;52.90;;;;;;5057480;28;20412;-69
2021/01/27 10:24:50;;;;;;;6.05;4.13;;;4.30;53.20;;;;;;5056739;28;20037;-69
2021/01/27 10:27:36;;;;;;;6.68;4.13;;;4.40;51.90;;;;;;5056603;28;20025;-69
2021/01/27 10:30:25;;;;;;;8.75;4.32;;;4.60;49.50;;;;;;5055319;28;20052;-69
2021/01/27 10:32:51;;;;;;;8.18;4.85;;;4.50;49.80;;;;;;5056461;28;20422;-69
2021/01/27 10:35:26;;;;;;;7.28;5.03;;;4.50;50.50;;;;;;5056511;28;20127;-69
2021/01/27 10:38:14;;;;;;;7.15;5.13;;;4.50;51.20;;;;;;5055537;28;20051;-69
2021/01/27 10:40:40;;;;;;;6.22;4.10;;;4.50;50.80;;;;;;5056360;28;20017;-69
2021/01/27 10:43:12;;;;;;;8.05;5.30;;;4.50;50.30;;;;;;5056702;28;20017;-69
2021/01/27 10:45:40;;;;;;;9.23;6.45;;;4.50;51.90;;;;;;5056348;28;20029;-69
2021/01/27 10:48:28;;;;;;;11.25;6.70;;;4.40;54.00;;;;;;5058529;28;20162;-69
2021/01/27 10:51:05;;;;;;;11.98;5.25;;;4.40;53.80;;;;;;5060561;28;20027;-69
2021/01/27 10:53:38;;;;;;;6.90;4.13;;;4.40;54.60;;;;;;5060621;28;20411;-69
2021/01/27 10:56:05;;;;;;;6.13;3.85;;;4.40;52.70;;;;;;5060298;28;20104;-69
2021/01/27 10:58:31;;;;;;;6.07;4.05;;;4.50;53.40;;;;;;5060553;28;20029;-69
2021/01/27 11:00:56;;;;;;;6.65;4.32;;;4.50;52.80;;;;;;5060418;28;20032;-69
2021/01/27 11:03:22;;;;;;;22.63;7.75;;;4.50;53.10;;;;;;5060568;28;20025;-69
2021/01/27 11:05:49;;;;;;;16.92;5.70;;;4.60;53.90;;;;;;5060084;28;20368;-69
2021/01/27 11:08:26;;;;;;;7.75;2.97;;;4.70;50.80;;;;;;5060445;28;20021;-69
2021/01/27 11:10:52;;;;;;;2.33;1.45;;;4.80;48.90;;;;;;5060179;28;20032;-69
2021/01/27 11:13:17;;;;;;;0.90;0.50;;;4.90;43.30;;;;;;5059059;28;20413;-69
2021/01/27 11:15:44;;;;;;;1.88;0.70;;;4.90;41.90;;;;;;5060017;28;20360;-69
2021/01/27 11:18:09;;;;;;;2.60;0.70;;;4.60;42.80;;;;;;5060006;28;20136;-67
2021/01/27 11:20:35;;;;;;;1.35;0.40;;;4.30;42.50;;;;;;5060012;28;20033;-68
2021/01/27 11:23:01;;;;;;;0.82;0.50;;;4.10;43.30;;;;;;5059943;28;20495;-69
2021/01/27 11:25:28;;;;;;;1.48;0.60;;;4.10;43.20;;;;;;5060136;28;20064;-69
2021/01/27 11:27:55;;;;;;;0.63;0.43;;;4.10;42.20;;;;;;5060174;28;20124;-69
2021/01/27 11:30:24;;;;;;;1.27;0.57;;;4.20;42.20;;;;;;5059734;28;20445;-69
2021/01/27 11:32:50;;;;;;;2.95;0.70;;;4.30;44.00;;;;;;5059793;28;20088;-69
2021/01/27 11:35:18;;;;;;;0.80;0.43;;;4.40;44.50;;;;;;5059796;28;20040;-69
2021/01/27 11:37:45;;;;;;;2.63;1.10;;;4.40;44.50;;;;;;5058669;28;20103;-69
2021/01/27 11:40:11;;;;;;;8.40;5.40;;;4.30;43.70;;;;;;5059603;28;20029;-69
2021/01/27 11:42:37;;;;;;;7.30;5.10;;;4.30;52.30;;;;;;5059582;28;20021;-68
2021/01/27 11:45:05;;;;;;;8.75;6.28;;;4.40;51.80;;;;;;5059715;28;20074;-69
2021/01/27 11:47:31;;;;;;;10.85;6.35;;;4.40;53.90;;;;;;5059378;28;20094;-69
2021/01/27 11:49:57;;;;;;;7.28;5.40;;;4.40;53.70;;;;;;5059529;28;20021;-67
2021/01/27 11:52:22;;;;;;;10.30;5.93;;;4.50;54.00;;;;;;5059644;28;20032;-67
2021/01/27 11:54:50;;;;;;;9.65;6.00;;;4.50;52.30;;;;;;5059530;28;20112;-69
2021/01/27 11:57:17;;;;;;;9.02;5.90;;;4.60;54.00;;;;;;5058248;28;20029;-67
2021/01/27 11:59:43;;;;;;;8.10;5.05;;;4.70;52.30;;;;;;5058652;28;20033;-69
2021/01/27 12:02:09;;;;;;;8.48;5.15;;;4.80;52.60;;;;;;5059466;28;20037;-69
2021/01/27 12:04:34;;;;;;;7.65;5.43;;;4.80;51.70;;;;;;5059306;28;20047;-69
2021/01/27 12:07:01;;;;;;;5.68;3.95;;;4.90;52.00;;;;;;5059004;28;20306;-69
2021/01/27 12:09:28;;;;;;;5.82;4.00;;;4.90;50.60;;;;;;5059322;28;20029;-69
2021/01/27 12:11:55;;;;;;;6.03;4.38;;;5.00;50.30;;;;;;5059029;28;20017;-69
2021/01/27 12:14:22;;;;;;;5.88;3.65;;;5.00;49.40;;;;;;5057929;28;20040;-67
2021/01/27 12:16:48;;;;;;;6.53;3.90;;;5.00;47.60;;;;;;5058891;28;20044;-67
2021/01/27 12:19:14;;;;;;;7.63;4.32;;;4.90;51.40;;;;;;5058830;28;20036;-67
2021/01/27 12:21:39;;;;;;;6.72;4.80;;;4.90;52.30;;;;;;5058776;28;20029;-69
2021/01/27 12:24:05;;;;;;;6.55;4.80;;;4.90;51.30;;;;;;5058765;28;20029;-69
2021/01/27 12:26:31;;;;;;;7.88;5.20;;;4.90;52.10;;;;;;5058686;28;20028;-69
2021/01/27 12:28:57;;;;;;;6.55;4.20;;;4.80;51.70;;;;;;5058511;28;20414;-70
2021/01/27 12:31:24;;;;;;;6.30;4.68;;;4.80;51.40;;;;;;5058690;28;20029;-69
2021/01/27 12:33:51;;;;;;;7.07;4.38;;;4.80;51.60;;;;;;5058618;28;20315;-69
2021/01/27 12:36:16;;;;;;;6.88;4.97;;;4.70;51.90;;;;;;5058464;28;20112;-69
2021/01/27 12:38:42;;;;;;;7.10;5.00;;;4.70;52.50;;;;;;5058613;28;20071;-69
2021/01/27 12:41:08;;;;;;;7.72;4.82;;;4.70;51.40;;;;;;5058437;28;20044;-67
2021/01/27 12:43:33;;;;;;;6.78;4.63;;;4.70;53.00;;;;;;5058615;28;20029;-67
2021/01/27 12:46:01;;;;;;;7.18;4.75;;;4.70;52.30;;;;;;5058222;28;20100;-67
2021/01/27 12:48:28;;;;;;;9.48;5.30;;;4.70;53.90;;;;;;5058358;28;20055;-67
2021/01/27 12:50:53;;;;;;;6.30;3.97;;;4.70;53.90;;;;;;5058318;28;20025;-67
2021/01/27 12:53:19;;;;;;;5.78;3.92;;;4.80;51.40;;;;;;5058518;28;20420;-69
2021/01/27 12:55:45;;;;;;;5.70;3.88;;;4.80;52.70;;;;;;5057966;28;20418;-67
2021/01/27 12:58:10;;;;;;;5.70;4.35;;;4.80;52.10;;;;;;5058137;28;20082;-67
2021/01/27 13:00:36;;;;;;;5.22;3.58;;;4.80;53.20;;;;;;5058079;28;20416;-67
2021/01/27 13:03:03;;;;;;;6.43;4.45;;;4.80;52.50;;;;;;5058128;28;20060;-67
2021/01/27 13:05:30;;;;;;;7.65;5.13;;;4.90;53.50;;;;;;5057989;28;20508;-67
2021/01/27 13:07:55;;;;;;;5.10;3.78;;;4.90;53.50;;;;;;5058002;28;20017;-67
2021/01/27 13:10:21;;;;;;;8.48;5.38;;;4.80;51.90;;;;;;5057840;28;20109;-69
2021/01/27 13:12:47;;;;;;;6.47;4.07;;;4.80;52.00;;;;;;5057830;28;20071;-69
2021/01/27 13:15:16;;;;;;;6.72;4.43;;;4.80;52.30;;;;;;5057715;28;20025;-67
2021/01/27 13:17:42;;;;;;;5.68;3.65;;;4.70;51.70;;;;;;5057836;28;20025;-67
2021/01/27 13:20:11;;;;;;;5.72;3.72;;;4.70;51.20;;;;;;5057981;28;20052;-67
2021/01/27 13:22:37;;;;;;;5.53;3.70;;;4.70;50.00;;;;;;5057630;28;20495;-67
2021/01/27 13:25:04;;;;;;;7.80;4.75;;;4.70;50.10;;;;;;5057449;28;20053;-67
2021/01/27 13:27:29;;;;;;;6.18;3.78;;;4.70;52.00;;;;;;5057549;28;20432;-67
2021/01/27 13:29:55;;;;;;;5.30;3.53;;;4.60;51.80;;;;;;5057282;28;20059;-67